sensor_id;sensor_type;location;lat;lon;timestamp;pressure;altitude;pressure_sealevel;temperature;humidity
37860;BME280;23698;52.014;5.190;2023-02-02T00:01:17;101803.16;;;9.11;100.00
37860;BME280;23698;52.014;5.190;2023-02-02T00:04:04;101821.63;;;8.97;100.00
37860;BME280;23698;52.014;5.190;2023-02-02T00:06:51;101833.94;;;8.92;100.00
37860;BME280;23698;52.014;5.190;2023-02-02T00:09:39;101855.31;;;9.03;100.00
37860;BME280;23698;52.014;5.190;2023-02-02T00:12:26;101853.31;;;8.87;100.00
37860;BME280;23698;52.014;5.190;2023-02-02T00:15:12;101848.13;;;8.94;100.00
37860;BME280;23698;52.014;5.190;2023-02-02T00:17:59;101843.69;;;8.84;100.00
37860;BME280;23698;52.014;5.190;2023-02-02T00:20:45;101836.00;;;8.98;100.00
37860;BME280;23698;52.014;5.190;2023-02-02T00:23:33;101840.09;;;9.02;100.00
37860;BME280;23698;52.014;5.190;2023-02-02T00:26:21;101835.22;;;8.87;100.00
37860;BME280;23698;52.014;5.190;2023-02-02T00:29:13;101833.25;;;8.90;100.00
37860;BME280;23698;52.014;5.190;2023-02-02T00:31:59;101822.13;;;8.75;100.00
37860;BME280;23698;52.014;5.190;2023-02-02T00:34:46;101829.13;;;9.03;100.00
37860;BME280;23698;52.014;5.190;2023-02-02T00:37:33;101820.28;;;9.01;100.00
37860;BME280;23698;52.014;5.190;2023-02-02T00:40:19;101818.63;;;9.00;100.00
37860;BME280;23698;52.014;5.190;2023-02-02T00:43:07;101813.31;;;8.73;100.00
37860;BME280;23698;52.014;5.190;2023-02-02T00:45:54;101820.00;;;9.04;100.00
37860;BME280;23698;52.014;5.190;2023-02-02T00:48:40;101808.19;;;8.87;100.00
37860;BME280;23698;52.014;5.190;2023-02-02T00:51:28;101797.94;;;8.73;100.00
37860;BME280;23698;52.014;5.190;2023-02-02T00:54:15;101806.25;;;8.26;100.00
37860;BME280;23698;52.014;5.190;2023-02-02T00:57:01;101786.34;;;8.27;100.00
37860;BME280;23698;52.014;5.190;2023-02-02T00:59:50;101795.06;;;8.21;100.00
37860;BME280;23698;52.014;5.190;2023-02-02T01:02:36;101815.69;;;8.22;100.00
37860;BME280;23698;52.014;5.190;2023-02-02T01:05:23;101807.88;;;8.37;100.00
37860;BME280;23698;52.014;5.190;2023-02-02T01:08:10;101795.94;;;8.21;100.00
37860;BME280;23698;52.014;5.190;2023-02-02T01:10:58;101801.09;;;8.15;100.00
37860;BME280;23698;52.014;5.190;2023-02-02T01:13:44;101793.28;;;8.29;100.00
37860;BME280;23698;52.014;5.190;2023-02-02T01:16:32;101795.16;;;8.29;100.00
37860;BME280;23698;52.014;5.190;2023-02-02T01:19:19;101796.81;;;8.12;100.00
37860;BME280;23698;52.014;5.190;2023-02-02T01:22:05;101797.75;;;8.03;100.00
37860;BME280;23698;52.014;5.190;2023-02-02T01:24:52;101804.47;;;8.44;100.00
37860;BME280;23698;52.014;5.190;2023-02-02T01:27:40;101792.59;;;8.27;100.00
37860;BME280;23698;52.014;5.190;2023-02-02T01:30:27;101804.84;;;8.04;100.00
37860;BME280;23698;52.014;5.190;2023-02-02T01:33:15;101802.63;;;8.17;100.00
37860;BME280;23698;52.014;5.190;2023-02-02T01:36:04;101804.78;;;8.31;100.00
37860;BME280;23698;52.014;5.190;2023-02-02T01:38:51;101796.81;;;8.12;100.00
37860;BME280;23698;52.014;5.190;2023-02-02T01:41:39;101800.41;;;8.30;100.00
37860;BME280;23698;52.014;5.190;2023-02-02T01:45:03;101798.75;;;8.47;100.00
37860;BME280;23698;52.014;5.190;2023-02-02T01:47:53;101798.69;;;8.11;100.00
37860;BME280;23698;52.014;5.190;2023-02-02T01:50:43;101793.81;;;8.43;100.00
37860;BME280;23698;52.014;5.190;2023-02-02T01:53:30;101803.91;;;8.59;100.00
37860;BME280;23698;52.014;5.190;2023-02-02T01:56:20;101796.13;;;8.28;100.00
37860;BME280;23698;52.014;5.190;2023-02-02T01:59:09;101798.84;;;8.10;100.00
37860;BME280;23698;52.014;5.190;2023-02-02T02:01:58;101800.69;;;8.27;100.00
37860;BME280;23698;52.014;5.190;2023-02-02T02:04:46;101798.06;;;8.18;100.00
37860;BME280;23698;52.014;5.190;2023-02-02T02:07:35;101795.59;;;8.24;100.00
37860;BME280;23698;52.014;5.190;2023-02-02T02:10:23;101801.47;;;8.38;100.00
37860;BME280;23698;52.014;5.190;2023-02-02T02:13:11;101798.66;;;8.57;100.00
37860;BME280;23698;52.014;5.190;2023-02-02T02:16:06;101801.19;;;8.41;100.00
37860;BME280;23698;52.014;5.190;2023-02-02T02:19:28;101804.34;;;8.54;100.00
37860;BME280;23698;52.014;5.190;2023-02-02T02:22:19;101807.41;;;8.95;100.00
37860;BME280;23698;52.014;5.190;2023-02-02T02:25:49;101808.38;;;8.86;100.00
37860;BME280;23698;52.014;5.190;2023-02-02T02:29:14;101805.69;;;8.50;100.00
37860;BME280;23698;52.014;5.190;2023-02-02T02:32:12;101817.81;;;8.64;100.00
37860;BME280;23698;52.014;5.190;2023-02-02T02:35:04;101813.88;;;8.58;100.00
37860;BME280;23698;52.014;5.190;2023-02-02T02:37:58;101814.88;;;8.57;100.00
37860;BME280;23698;52.014;5.190;2023-02-02T02:40:52;101812.81;;;8.51;100.00
37860;BME280;23698;52.014;5.190;2023-02-02T02:43:42;101823.19;;;8.82;100.00
37860;BME280;23698;52.014;5.190;2023-02-02T02:46:33;101810.31;;;8.76;100.00
37860;BME280;23698;52.014;5.190;2023-02-02T02:49:21;101806.59;;;8.77;100.00
37860;BME280;23698;52.014;5.190;2023-02-02T02:52:08;101794.41;;;8.55;100.00
37860;BME280;23698;52.014;5.190;2023-02-02T02:54:57;101794.00;;;8.67;100.00
37860;BME280;23698;52.014;5.190;2023-02-02T02:57:57;101788.16;;;8.54;100.00
37860;BME280;23698;52.014;5.190;2023-02-02T03:00:58;101788.00;;;8.56;100.00
37860;BME280;23698;52.014;5.190;2023-02-02T03:04:00;101792.31;;;8.30;100.00
37860;BME280;23698;52.014;5.190;2023-02-02T03:06:56;101779.94;;;8.28;100.00
37860;BME280;23698;52.014;5.190;2023-02-02T03:09:46;101783.03;;;8.33;100.00
37860;BME280;23698;52.014;5.190;2023-02-02T03:12:42;101778.78;;;8.30;100.00
37860;BME280;23698;52.014;5.190;2023-02-02T03:15:29;101781.38;;;8.50;100.00
37860;BME280;23698;52.014;5.190;2023-02-02T03:18:18;101790.06;;;8.44;100.00
37860;BME280;23698;52.014;5.190;2023-02-02T03:21:05;101782.44;;;8.21;100.00
37860;BME280;23698;52.014;5.190;2023-02-02T03:23:53;101792.06;;;8.24;100.00
37860;BME280;23698;52.014;5.190;2023-02-02T03:26:40;101806.75;;;8.39;100.00
37860;BME280;23698;52.014;5.190;2023-02-02T03:29:27;101811.31;;;8.39;100.00
37860;BME280;23698;52.014;5.190;2023-02-02T03:32:14;101820.19;;;8.49;100.00
37860;BME280;23698;52.014;5.190;2023-02-02T03:35:00;101822.50;;;8.44;100.00
37860;BME280;23698;52.014;5.190;2023-02-02T03:37:47;101823.69;;;8.77;100.00
37860;BME280;23698;52.014;5.190;2023-02-02T03:40:35;101841.56;;;8.96;100.00
37860;BME280;23698;52.014;5.190;2023-02-02T03:43:22;101834.16;;;8.98;100.00
37860;BME280;23698;52.014;5.190;2023-02-02T03:46:09;101842.66;;;8.85;100.00
37860;BME280;23698;52.014;5.190;2023-02-02T03:48:56;101841.75;;;8.95;100.00
37860;BME280;23698;52.014;5.190;2023-02-02T03:51:42;101847.94;;;9.13;100.00
37860;BME280;23698;52.014;5.190;2023-02-02T03:54:29;101852.22;;;8.98;100.00
37860;BME280;23698;52.014;5.190;2023-02-02T03:57:17;101854.00;;;8.89;100.00
37860;BME280;23698;52.014;5.190;2023-02-02T04:00:05;101843.81;;;9.27;100.00
37860;BME280;23698;52.014;5.190;2023-02-02T04:02:56;101861.31;;;9.15;100.00
37860;BME280;23698;52.014;5.190;2023-02-02T04:05:42;101873.53;;;9.45;100.00
37860;BME280;23698;52.014;5.190;2023-02-02T04:08:29;101858.00;;;9.03;100.00
37860;BME280;23698;52.014;5.190;2023-02-02T04:11:17;101852.28;;;9.06;100.00
37860;BME280;23698;52.014;5.190;2023-02-02T04:14:05;101833.50;;;9.04;100.00
37860;BME280;23698;52.014;5.190;2023-02-02T04:16:52;101836.06;;;9.32;100.00
37860;BME280;23698;52.014;5.190;2023-02-02T04:19:39;101833.94;;;8.92;100.00
37860;BME280;23698;52.014;5.190;2023-02-02T04:22:26;101835.31;;;8.96;100.00
37860;BME280;23698;52.014;5.190;2023-02-02T04:25:13;101833.00;;;9.27;100.00
37860;BME280;23698;52.014;5.190;2023-02-02T04:27:59;101836.06;;;9.32;100.00
37860;BME280;23698;52.014;5.190;2023-02-02T04:30:47;101834.31;;;8.97;100.00
37860;BME280;23698;52.014;5.190;2023-02-02T04:33:33;101843.22;;;9.41;100.00
37860;BME280;23698;52.014;5.190;2023-02-02T04:36:20;101841.22;;;9.43;100.00
37860;BME280;23698;52.014;5.190;2023-02-02T04:39:10;101858.69;;;9.23;100.00
37860;BME280;23698;52.014;5.190;2023-02-02T04:41:56;101868.66;;;9.49;100.00
37860;BME280;23698;52.014;5.190;2023-02-02T04:44:43;101877.34;;;9.34;100.00
37860;BME280;23698;52.014;5.190;2023-02-02T04:47:31;101866.13;;;9.21;100.00
37860;BME280;23698;52.014;5.190;2023-02-02T04:50:18;101850.81;;;9.12;100.00
37860;BME280;23698;52.014;5.190;2023-02-02T04:53:05;101853.97;;;9.25;100.00
37860;BME280;23698;52.014;5.190;2023-02-02T04:55:51;101856.50;;;9.53;100.00
37860;BME280;23698;52.014;5.190;2023-02-02T04:58:38;101861.41;;;9.49;100.00
37860;BME280;23698;52.014;5.190;2023-02-02T05:01:25;101866.16;;;9.29;100.00
37860;BME280;23698;52.014;5.190;2023-02-02T05:04:15;101876.97;;;9.55;100.00
37860;BME280;23698;52.014;5.190;2023-02-02T05:07:01;101872.63;;;9.36;100.00
37860;BME280;23698;52.014;5.190;2023-02-02T05:09:48;101880.72;;;9.28;100.00
37860;BME280;23698;52.014;5.190;2023-02-02T05:12:34;101877.72;;;9.13;100.00
37860;BME280;23698;52.014;5.190;2023-02-02T05:15:21;101862.81;;;9.35;100.00
37860;BME280;23698;52.014;5.190;2023-02-02T05:18:08;101882.69;;;9.26;100.00
37860;BME280;23698;52.014;5.190;2023-02-02T05:20:58;101881.03;;;9.51;100.00
37860;BME280;23698;52.014;5.190;2023-02-02T05:23:45;101883.56;;;9.53;100.00
37860;BME280;23698;52.014;5.190;2023-02-02T05:26:32;101882.81;;;9.42;100.00
37860;BME280;23698;52.014;5.190;2023-02-02T05:29:19;101879.84;;;9.54;100.00
37860;BME280;23698;52.014;5.190;2023-02-02T05:32:06;101881.41;;;9.56;100.00
37860;BME280;23698;52.014;5.190;2023-02-02T05:34:52;101893.88;;;9.49;100.00
37860;BME280;23698;52.014;5.190;2023-02-02T05:37:42;101894.94;;;9.30;100.00
37860;BME280;23698;52.014;5.190;2023-02-02T05:40:29;101881.88;;;9.52;100.00
37860;BME280;23698;52.014;5.190;2023-02-02T05:43:15;101880.94;;;9.17;100.00
37860;BME280;23698;52.014;5.190;2023-02-02T05:46:03;101867.53;;;9.07;100.00
37860;BME280;23698;52.014;5.190;2023-02-02T05:48:50;101879.75;;;9.37;100.00
37860;BME280;23698;52.014;5.190;2023-02-02T05:51:38;101882.16;;;9.40;100.00
37860;BME280;23698;52.014;5.190;2023-02-02T05:54:29;101884.63;;;9.34;100.00
37860;BME280;23698;52.014;5.190;2023-02-02T05:57:15;101875.09;;;9.48;100.00
37860;BME280;23698;52.014;5.190;2023-02-02T06:00:03;101888.69;;;9.56;100.00
37860;BME280;23698;52.014;5.190;2023-02-02T06:02:56;101889.16;;;9.51;100.00
37860;BME280;23698;52.014;5.190;2023-02-02T06:05:43;101893.88;;;9.83;100.00
37860;BME280;23698;52.014;5.190;2023-02-02T06:08:29;101895.88;;;9.73;100.00
37860;BME280;23698;52.014;5.190;2023-02-02T06:11:18;101893.16;;;9.21;100.00
37860;BME280;23698;52.014;5.190;2023-02-02T06:14:04;101896.78;;;9.82;100.00
37860;BME280;23698;52.014;5.190;2023-02-02T06:16:51;101896.13;;;9.36;100.00
37860;BME280;23698;52.014;5.190;2023-02-02T06:19:37;101905.91;;;9.55;100.00
37860;BME280;23698;52.014;5.190;2023-02-02T06:22:24;101899.28;;;9.49;100.00
37860;BME280;23698;52.014;5.190;2023-02-02T06:25:10;101902.16;;;9.48;100.00
37860;BME280;23698;52.014;5.190;2023-02-02T06:27:59;101906.66;;;9.39;100.00
37860;BME280;23698;52.014;5.190;2023-02-02T06:30:46;101903.34;;;9.79;100.00
37860;BME280;23698;52.014;5.190;2023-02-02T06:33:33;101915.50;;;9.23;100.00
37860;BME280;23698;52.014;5.190;2023-02-02T06:36:20;101908.06;;;9.25;100.00
37860;BME280;23698;52.014;5.190;2023-02-02T06:39:07;101910.84;;;9.15;100.00
37860;BME280;23698;52.014;5.190;2023-02-02T06:41:55;101902.97;;;9.22;100.00
37860;BME280;23698;52.014;5.190;2023-02-02T06:44:42;101900.00;;;9.07;100.00
37860;BME280;23698;52.014;5.190;2023-02-02T06:47:31;101904.94;;;8.94;100.00
37860;BME280;23698;52.014;5.190;2023-02-02T06:50:18;101904.53;;;8.88;100.00
37860;BME280;23698;52.014;5.190;2023-02-02T06:53:05;101913.28;;;9.00;100.00
37860;BME280;23698;52.014;5.190;2023-02-02T06:55:52;101899.34;;;9.13;100.00
37860;BME280;23698;52.014;5.190;2023-02-02T06:58:40;101913.19;;;9.28;100.00
37860;BME280;23698;52.014;5.190;2023-02-02T07:01:28;101912.34;;;9.10;100.00
37860;BME280;23698;52.014;5.190;2023-02-02T07:04:15;101898.28;;;9.06;100.00
37860;BME280;23698;52.014;5.190;2023-02-02T07:07:02;101899.38;;;8.95;100.00
37860;BME280;23698;52.014;5.190;2023-02-02T07:09:49;101888.63;;;9.03;100.00
37860;BME280;23698;52.014;5.190;2023-02-02T07:12:43;101896.72;;;8.85;100.00
37860;BME280;23698;52.014;5.190;2023-02-02T07:15:30;101888.38;;;8.43;100.00
37860;BME280;23698;52.014;5.190;2023-02-02T07:18:18;101891.38;;;9.12;100.00
37860;BME280;23698;52.014;5.190;2023-02-02T07:21:05;101894.34;;;9.00;100.00
37860;BME280;23698;52.014;5.190;2023-02-02T07:23:52;101886.28;;;9.08;100.00
37860;BME280;23698;52.014;5.190;2023-02-02T07:26:39;101896.69;;;8.77;100.00
37860;BME280;23698;52.014;5.190;2023-02-02T07:29:26;101886.69;;;8.78;100.00
37860;BME280;23698;52.014;5.190;2023-02-02T07:32:13;101885.06;;;9.21;100.00
37860;BME280;23698;52.014;5.190;2023-02-02T07:35:01;101899.84;;;8.73;100.00
37860;BME280;23698;52.014;5.190;2023-02-02T07:37:50;101907.91;;;9.08;100.00
37860;BME280;23698;52.014;5.190;2023-02-02T07:40:37;101917.22;;;9.50;100.00
37860;BME280;23698;52.014;5.190;2023-02-02T07:43:24;101921.75;;;9.23;100.00
37860;BME280;23698;52.014;5.190;2023-02-02T07:46:10;101926.09;;;9.16;100.00
37860;BME280;23698;52.014;5.190;2023-02-02T07:48:58;101926.88;;;8.91;100.00
37860;BME280;23698;52.014;5.190;2023-02-02T07:51:46;101931.97;;;9.30;100.00
37860;BME280;23698;52.014;5.190;2023-02-02T07:54:33;101940.75;;;9.76;100.00
37860;BME280;23698;52.014;5.190;2023-02-02T07:57:20;101945.25;;;9.67;100.00
37860;BME280;23698;52.014;5.190;2023-02-02T08:00:08;101964.28;;;9.57;100.00
37860;BME280;23698;52.014;5.190;2023-02-02T08:02:58;101960.66;;;9.49;100.00
37860;BME280;23698;52.014;5.190;2023-02-02T08:05:44;101975.91;;;9.50;100.00
37860;BME280;23698;52.014;5.190;2023-02-02T08:08:32;101970.13;;;9.44;100.00
37860;BME280;23698;52.014;5.190;2023-02-02T08:11:20;101988.75;;;9.92;100.00
37860;BME280;23698;52.014;5.190;2023-02-02T08:14:11;101991.16;;;9.33;100.00
37860;BME280;23698;52.014;5.190;2023-02-02T08:16:58;101996.66;;;9.85;100.00
37860;BME280;23698;52.014;5.190;2023-02-02T08:19:44;102006.03;;;9.91;100.00
37860;BME280;23698;52.014;5.190;2023-02-02T08:22:31;102003.13;;;9.92;100.00
37860;BME280;23698;52.014;5.190;2023-02-02T08:25:19;102011.59;;;9.89;100.00
37860;BME280;23698;52.014;5.190;2023-02-02T08:28:06;102017.78;;;9.81;100.00
37860;BME280;23698;52.014;5.190;2023-02-02T08:30:53;102019.22;;;9.50;100.00
37860;BME280;23698;52.014;5.190;2023-02-02T08:33:39;102020.78;;;9.96;100.00
37860;BME280;23698;52.014;5.190;2023-02-02T08:36:27;102033.13;;;9.73;100.00
37860;BME280;23698;52.014;5.190;2023-02-02T08:39:14;102046.69;;;9.99;100.00
37860;BME280;23698;52.014;5.190;2023-02-02T08:42:02;102040.25;;;9.74;100.00
37860;BME280;23698;52.014;5.190;2023-02-02T08:44:49;102053.69;;;10.10;100.00
37860;BME280;23698;52.014;5.190;2023-02-02T08:47:56;102062.91;;;10.17;100.00
37860;BME280;23698;52.014;5.190;2023-02-02T08:50:57;102067.09;;;9.67;100.00
37860;BME280;23698;52.014;5.190;2023-02-02T08:53:45;102058.03;;;9.94;100.00
37860;BME280;23698;52.014;5.190;2023-02-02T08:56:32;102081.28;;;10.05;100.00
37860;BME280;23698;52.014;5.190;2023-02-02T08:59:20;102076.53;;;9.81;100.00
37860;BME280;23698;52.014;5.190;2023-02-02T09:02:08;102059.06;;;9.75;100.00
37860;BME280;23698;52.014;5.190;2023-02-02T09:04:55;102077.94;;;10.11;100.00
37860;BME280;23698;52.014;5.190;2023-02-02T09:07:41;102073.56;;;9.92;100.00
37860;BME280;23698;52.014;5.190;2023-02-02T09:10:28;102082.44;;;10.29;100.00
37860;BME280;23698;52.014;5.190;2023-02-02T09:13:16;102077.94;;;10.11;100.00
37860;BME280;23698;52.014;5.190;2023-02-02T09:16:06;102092.88;;;10.68;100.00
37860;BME280;23698;52.014;5.190;2023-02-02T09:18:55;102089.69;;;10.46;100.00
37860;BME280;23698;52.014;5.190;2023-02-02T09:21:42;102106.09;;;10.36;100.00
37860;BME280;23698;52.014;5.190;2023-02-02T09:24:28;102102.63;;;10.52;100.00
37860;BME280;23698;52.014;5.190;2023-02-02T09:27:15;102101.69;;;10.35;100.00
37860;BME280;23698;52.014;5.190;2023-02-02T09:30:02;102114.81;;;10.83;100.00
37860;BME280;23698;52.014;5.190;2023-02-02T09:32:50;102124.00;;;10.90;100.00
37860;BME280;23698;52.014;5.190;2023-02-02T09:35:38;102125.19;;;10.95;100.00
37860;BME280;23698;52.014;5.190;2023-02-02T09:38:24;102136.88;;;10.88;100.00
37860;BME280;23698;52.014;5.190;2023-02-02T09:41:37;102145.72;;;10.64;100.00
37860;BME280;23698;52.014;5.190;2023-02-02T09:44:45;102142.09;;;10.81;100.00
37860;BME280;23698;52.014;5.190;2023-02-02T09:48:01;102139.53;;;10.80;100.00
37860;BME280;23698;52.014;5.190;2023-02-02T09:50:54;102147.94;;;10.94;100.00
37860;BME280;23698;52.014;5.190;2023-02-02T09:53:44;102139.13;;;11.43;100.00
37860;BME280;23698;52.014;5.190;2023-02-02T09:56:42;102145.09;;;11.63;100.00
37860;BME280;23698;52.014;5.190;2023-02-02T09:59:34;102143.50;;;10.85;100.00
37860;BME280;23698;52.014;5.190;2023-02-02T10:02:27;102133.44;;;10.43;100.00
37860;BME280;23698;52.014;5.190;2023-02-02T10:05:22;102120.09;;;10.58;100.00
37860;BME280;23698;52.014;5.190;2023-02-02T10:08:16;102116.25;;;10.34;100.00
37860;BME280;23698;52.014;5.190;2023-02-02T10:11:26;102135.66;;;10.30;100.00
37860;BME280;23698;52.014;5.190;2023-02-02T10:14:20;102127.56;;;10.56;100.00
37860;BME280;23698;52.014;5.190;2023-02-02T10:17:25;102149.28;;;10.90;100.00
37860;BME280;23698;52.014;5.190;2023-02-02T10:20:28;102150.53;;;10.70;100.00
37860;BME280;23698;52.014;5.190;2023-02-02T10:23:22;102146.31;;;11.10;100.00
37860;BME280;23698;52.014;5.190;2023-02-02T10:26:15;102154.72;;;10.99;100.00
37860;BME280;23698;52.014;5.190;2023-02-02T10:29:14;102160.59;;;11.20;100.00
37860;BME280;23698;52.014;5.190;2023-02-02T10:32:09;102159.44;;;11.31;100.00
37860;BME280;23698;52.014;5.190;2023-02-02T10:35:11;102176.06;;;10.93;100.00
37860;BME280;23698;52.014;5.190;2023-02-02T10:38:10;102186.50;;;11.06;100.00
37860;BME280;23698;52.014;5.190;2023-02-02T10:41:06;102198.06;;;11.59;100.00
37860;BME280;23698;52.014;5.190;2023-02-02T10:44:05;102205.22;;;11.68;100.00
37860;BME280;23698;52.014;5.190;2023-02-02T10:46:58;102211.19;;;11.29;100.00
37860;BME280;23698;52.014;5.190;2023-02-02T10:49:53;102216.66;;;11.38;100.00
37860;BME280;23698;52.014;5.190;2023-02-02T10:52:44;102209.13;;;11.23;100.00
37860;BME280;23698;52.014;5.190;2023-02-02T10:55:38;102203.78;;;11.48;100.00
37860;BME280;23698;52.014;5.190;2023-02-02T10:58:29;102211.47;;;11.18;100.00
37860;BME280;23698;52.014;5.190;2023-02-02T11:01:17;102190.53;;;11.37;100.00
37860;BME280;23698;52.014;5.190;2023-02-02T11:04:08;102202.66;;;11.67;100.00
37860;BME280;23698;52.014;5.190;2023-02-02T11:07:12;102211.97;;;12.23;100.00
37860;BME280;23698;52.014;5.190;2023-02-02T11:10:05;102200.72;;;12.26;100.00
37860;BME280;23698;52.014;5.190;2023-02-02T11:12:54;102197.38;;;10.54;100.00
37860;BME280;23698;52.014;5.190;2023-02-02T11:15:46;102202.94;;;11.47;100.00
37860;BME280;23698;52.014;5.190;2023-02-02T11:18:32;102194.50;;;10.82;100.00
37860;BME280;23698;52.014;5.190;2023-02-02T11:21:23;102196.19;;;11.60;100.00
37860;BME280;23698;52.014;5.190;2023-02-02T11:24:20;102206.53;;;11.13;100.00
37860;BME280;23698;52.014;5.190;2023-02-02T11:27:12;102199.19;;;11.06;100.00
37860;BME280;23698;52.014;5.190;2023-02-02T11:30:10;102192.59;;;11.08;100.00
37860;BME280;23698;52.014;5.190;2023-02-02T11:33:20;102192.72;;;10.64;100.00
37860;BME280;23698;52.014;5.190;2023-02-02T11:36:18;102189.44;;;11.21;100.00
37860;BME280;23698;52.014;5.190;2023-02-02T11:39:15;102194.59;;;10.72;100.00
37860;BME280;23698;52.014;5.190;2023-02-02T11:42:05;102195.13;;;11.02;100.00
37860;BME280;23698;52.014;5.190;2023-02-02T11:44:54;102190.84;;;11.33;100.00
37860;BME280;23698;52.014;5.190;2023-02-02T11:47:44;102198.28;;;10.89;100.00
37860;BME280;23698;52.014;5.190;2023-02-02T11:50:32;102194.91;;;11.29;100.00
37860;BME280;23698;52.014;5.190;2023-02-02T11:53:22;102199.97;;;11.24;100.00
37860;BME280;23698;52.014;5.190;2023-02-02T11:56:17;102186.19;;;11.60;100.00
37860;BME280;23698;52.014;5.190;2023-02-02T11:59:04;102194.47;;;11.08;100.00
37860;BME280;23698;52.014;5.190;2023-02-02T12:02:27;102188.50;;;10.70;100.00
37860;BME280;23698;52.014;5.190;2023-02-02T12:05:33;102187.31;;;10.72;100.00
37860;BME280;23698;52.014;5.190;2023-02-02T12:08:20;102176.81;;;11.04;100.00
37860;BME280;23698;52.014;5.190;2023-02-02T12:11:18;102179.63;;;10.24;100.00
37860;BME280;23698;52.014;5.190;2023-02-02T12:14:19;102165.50;;;10.82;100.00
37860;BME280;23698;52.014;5.190;2023-02-02T12:17:18;102174.56;;;10.65;100.00
37860;BME280;23698;52.014;5.190;2023-02-02T12:20:19;102188.19;;;10.73;100.00
37860;BME280;23698;52.014;5.190;2023-02-02T12:23:12;102178.69;;;11.03;100.00
37860;BME280;23698;52.014;5.190;2023-02-02T12:26:16;102180.38;;;10.70;100.00
37860;BME280;23698;52.014;5.190;2023-02-02T12:29:22;102175.63;;;10.46;100.00
37860;BME280;23698;52.014;5.190;2023-02-02T12:32:25;102166.06;;;10.60;100.00
37860;BME280;23698;52.014;5.190;2023-02-02T12:35:43;102154.41;;;10.67;100.00
37860;BME280;23698;52.014;5.190;2023-02-02T12:38:51;102142.84;;;10.65;100.00
37860;BME280;23698;52.014;5.190;2023-02-02T12:41:54;102132.00;;;10.65;100.00
37860;BME280;23698;52.014;5.190;2023-02-02T12:44:57;102127.25;;;10.33;100.00
37860;BME280;23698;52.014;5.190;2023-02-02T12:48:00;102117.16;;;10.77;100.00
37860;BME280;23698;52.014;5.190;2023-02-02T12:51:00;102121.47;;;10.62;100.00
37860;BME280;23698;52.014;5.190;2023-02-02T12:54:14;102125.75;;;10.65;100.00
37860;BME280;23698;52.014;5.190;2023-02-02T12:57:33;102139.47;;;10.63;100.00
37860;BME280;23698;52.014;5.190;2023-02-02T13:00:48;102129.97;;;10.67;100.00
37860;BME280;23698;52.014;5.190;2023-02-02T13:03:53;102130.41;;;10.28;100.00
37860;BME280;23698;52.014;5.190;2023-02-02T13:07:01;102122.81;;;10.58;100.00
37860;BME280;23698;52.014;5.190;2023-02-02T13:10:02;102129.84;;;10.43;100.00
37860;BME280;23698;52.014;5.190;2023-02-02T13:12:55;102125.03;;;10.10;100.00
37860;BME280;23698;52.014;5.190;2023-02-02T13:15:45;102111.19;;;10.21;100.00
37860;BME280;23698;52.014;5.190;2023-02-02T13:18:35;102095.25;;;9.74;100.00
37860;BME280;23698;52.014;5.190;2023-02-02T13:21:24;102084.13;;;9.59;100.00
37860;BME280;23698;52.014;5.190;2023-02-02T13:24:19;102064.81;;;9.98;100.00
37860;BME280;23698;52.014;5.190;2023-02-02T13:27:14;102062.38;;;9.69;100.00
37860;BME280;23698;52.014;5.190;2023-02-02T13:30:10;102049.28;;;9.82;100.00
37860;BME280;23698;52.014;5.190;2023-02-02T13:33:01;102058.81;;;10.13;100.00
37860;BME280;23698;52.014;5.190;2023-02-02T13:35:51;102051.50;;;10.05;100.00
37860;BME280;23698;52.014;5.190;2023-02-02T13:38:39;102059.88;;;10.20;100.00
37860;BME280;23698;52.014;5.190;2023-02-02T13:41:27;102050.22;;;9.55;100.00
37860;BME280;23698;52.014;5.190;2023-02-02T13:44:21;102042.31;;;9.98;100.00
37860;BME280;23698;52.014;5.190;2023-02-02T13:47:15;102050.59;;;9.78;100.00
37860;BME280;23698;52.014;5.190;2023-02-02T13:50:09;102051.63;;;10.04;100.00
37860;BME280;23698;52.014;5.190;2023-02-02T13:53:12;102042.44;;;9.70;100.00
37860;BME280;23698;52.014;5.190;2023-02-02T13:56:18;102047.56;;;9.81;100.00
37860;BME280;23698;52.014;5.190;2023-02-02T13:59:27;102050.28;;;9.99;100.00
37860;BME280;23698;52.014;5.190;2023-02-02T14:02:25;102052.75;;;9.75;100.00
37860;BME280;23698;52.014;5.190;2023-02-02T14:05:23;102047.75;;;9.62;100.00
37860;BME280;23698;52.014;5.190;2023-02-02T14:08:16;102046.66;;;9.91;100.00
37860;BME280;23698;52.014;5.190;2023-02-02T14:11:06;102049.63;;;9.61;100.00
37860;BME280;23698;52.014;5.190;2023-02-02T14:13:56;102064.00;;;9.62;100.00
37860;BME280;23698;52.014;5.190;2023-02-02T14:17:05;102063.84;;;10.08;100.00
37860;BME280;23698;52.014;5.190;2023-02-02T14:19:53;102066.88;;;9.42;100.00
37860;BME280;23698;52.014;5.190;2023-02-02T14:22:43;102059.66;;;9.69;100.00
37860;BME280;23698;52.014;5.190;2023-02-02T14:26:05;102062.00;;;9.82;100.00
37860;BME280;23698;52.014;5.190;2023-02-02T14:28:52;102070.56;;;9.41;100.00
37860;BME280;23698;52.014;5.190;2023-02-02T14:31:52;102062.06;;;9.36;100.00
37860;BME280;23698;52.014;5.190;2023-02-02T14:34:41;102058.75;;;9.60;100.00
37860;BME280;23698;52.014;5.190;2023-02-02T14:37:45;102058.19;;;9.75;100.00
37860;BME280;23698;52.014;5.190;2023-02-02T14:40:44;102072.34;;;9.15;100.00
37860;BME280;23698;52.014;5.190;2023-02-02T14:43:35;102066.47;;;9.19;100.00
37860;BME280;23698;52.014;5.190;2023-02-02T14:46:36;102075.09;;;9.51;100.00
37860;BME280;23698;52.014;5.190;2023-02-02T14:49:26;102074.38;;;9.67;100.00
37860;BME280;23698;52.014;5.190;2023-02-02T14:52:22;102082.09;;;9.79;100.00
37860;BME280;23698;52.014;5.190;2023-02-02T14:55:18;102085.13;;;9.40;100.00